METAR Data
IDs: Format: Raw Decoded Include TAF

Data at: 0353 UTC 21 Sep 2018

K54J 210315Z AUTO 00000KT 10SM SCT110 25/22 A3008 RMK AO2 T02450223
K54J 201855Z AUTO 11004KT 10SM SCT040 32/23 A3004 RMK AO2 T03190226
K54J 201755Z AUTO 21003KT 10SM SCT038 SCT046 32/23 A3006 RMK AO2 T03190228 10322 20236
K54J 201715Z AUTO 10005KT 10SM SCT032 32/23 A3008 RMK AO2 T03190233
K54J 201615Z AUTO 11005KT 10SM CLR 31/24 A3009 RMK AO2 T03080235
K54J 201435Z AUTO 08003KT 10SM CLR 29/24 A3009 RMK AO2 T02860242
K54J 201355Z AUTO 00000KT 10SM CLR 27/24 A3008 RMK AO2 T02730240
K54J 201315Z AUTO 05004KT 10SM CLR 26/24 A3007 RMK AO2 T02600238
K54J 201255Z AUTO 00000KT 10SM CLR 26/24 A3007 RMK AO2 T02580240
K54J 201135Z AUTO 00000KT 5SM BR CLR 23/23 A3003 RMK AO2 T02330227
K54J 201115Z AUTO 00000KT 7SM CLR 24/23 A3003 RMK AO2 T02350227
K54J 201055Z AUTO 00000KT 10SM CLR 24/23 A3002 RMK AO2 T02360226
K54J 201035Z AUTO 00000KT 7SM CLR 23/23 A3002 RMK AO2 T02320228
K54J 201015Z AUTO 00000KT 10SM CLR 23/23 A3002 RMK AO2 T02330226
K54J 200855Z AUTO 00000KT 10SM SCT065 23/22 A2999 RMK AO2 T02340224
K54J 200835Z AUTO 00000KT 10SM BKN065 24/22 A2999 RMK AO2 T02350220
K54J 200815Z AUTO 00000KT 10SM SCT065 23/22 A2999 RMK AO2 T02290222
K54J 200755Z AUTO 00000KT 10SM CLR 24/22 A2999 RMK AO2 T02350222
K54J 200735Z AUTO 00000KT 10SM CLR 24/22 A2999 RMK AO2 T02350220
K54J 200715Z AUTO 00000KT 10SM CLR 23/22 A2999 RMK AO2 T02300220
K54J 200655Z AUTO 00000KT 10SM CLR 23/22 A3000 RMK AO2 T02340220
K54J 200635Z AUTO 00000KT 10SM CLR 23/22 A3000 RMK AO2 T02300219
K54J 200615Z AUTO 00000KT 10SM CLR 23/22 A3000 RMK AO2 T02290220
K54J 200555Z AUTO 00000KT 10SM CLR 23/22 A3000 RMK AO2 T02250216 10239 20223
K54J 200535Z AUTO 00000KT 10SM CLR 23/22 A3000 RMK AO2 T02270220
K54J 200515Z AUTO 00000KT 10SM CLR 23/22 A3000 RMK AO2 T02300220
K54J 200455Z AUTO 00000KT 10SM CLR 23/22 A3000 RMK AO2 T02310220
K54J 200435Z AUTO 00000KT 10SM SCT120 23/22 A3000 RMK AO2 T02270216
K54J 200415Z AUTO 00000KT 10SM CLR 23/22 A3000 RMK AO2 T02300221
K54J 200355Z AUTO 00000KT 10SM CLR 22/22 A3000 RMK AO2 T02230218
K54J 200335Z AUTO 00000KT 10SM CLR 22/22 A3000 RMK AO2 T02230218
K54J 192155Z AUTO 35014G21KT 320V020 10SM SCT028 BKN048 BKN055 29/23 A2995 RMK AO2 LTG DSNT E T02890225
K54J 192135Z AUTO 20005KT 10SM SCT050 SCT070 29/23 A2993 RMK AO2 T02900227
K54J 191915Z AUTO 03004KT 10SM CLR 34/21 A2994 RMK AO2 T03350213
K54J 191755Z AUTO 35004KT 10SM SCT060 BKN070 BKN090 31/22 A2998 RMK AO2 T03140218 10325 20234
K54J 191655Z AUTO 00000KT 10SM CLR 32/22 A3000 RMK AO2 T03160222